Wake-n-waves — 9 — position and weather

sailwx.info

Track history (hours):
 
Tides and Currents Weather Stations Pressure Air Temp Water Temp Dewpoint Dewpoint Depression Visibility Wind Speed Wind Dir Waves Ship Positions

Wake-n-waves

Last reported at 2017-Dec-17 02:22 UTC. Time now 2017-Dec-17 02:36 UTC.
Position N 31°38' E 121°14'.

Length 17 m.

Type: Pleasure craft. MMSI: 338025702.

Date/timePositionNaut miles runAvg speedWind from/ knotsBaromVisibWave heightAir tempDewpointWater temp
2017-Dec-17 02:22N 31°38' E 121°14'0 0.0
2017-Dec-17 01:10N 31°38' E 121°14'0 0.0
2017-Dec-17 00:49N 31°38' E 121°14'1 1.9
2017-Dec-17 00:29N 31°39' E 121°14'  
2017-Dec-14 12:27N 31°30' E 121°22'0 0.0
2017-Dec-14 11:51N 31°30' E 121°22'0 0.0
2017-Dec-14 11:30N 31°30' E 121°22'0 0.0
2017-Dec-14 10:49N 31°30' E 121°22'0 0.0
2017-Dec-14 10:27N 31°30' E 121°22'0 0.0
2017-Dec-14 10:00N 31°30' E 121°22'0 0.0
2017-Dec-14 09:30N 31°30' E 121°22'0 0.0
2017-Dec-14 08:58N 31°30' E 121°22'0 0.0
2017-Dec-14 08:30N 31°30' E 121°22'0 0.0
2017-Dec-14 07:24N 31°30' E 121°22'0 0.0
2017-Dec-14 06:59N 31°30' E 121°22'0 0.0
2017-Dec-14 06:28N 31°30' E 121°22'0 0.2
2017-Dec-14 05:57N 31°30' E 121°22'0 0.0
2017-Dec-14 05:29N 31°30' E 121°22'0 0.0
2017-Dec-14 05:00N 31°30' E 121°22'0 0.0
2017-Dec-14 04:30N 31°30' E 121°22'0 0.0
2017-Dec-14 03:53N 31°30' E 121°22'0 0.0
2017-Dec-14 03:30N 31°30' E 121°22'0 0.0
2017-Dec-14 02:59N 31°30' E 121°22'1 1.7
2017-Dec-14 02:29N 31°31' E 121°22'0 0.0
2017-Dec-14 01:59N 31°31' E 121°22'0 0.0
2017-Dec-14 01:29N 31°31' E 121°22'0 0.0
2017-Dec-14 01:00N 31°31' E 121°22'0 0.0
2017-Dec-14 00:28N 31°31' E 121°22'0 0.0
2017-Dec-14 00:00N 31°31' E 121°22'0 0.0
2017-Dec-13 23:30N 31°31' E 121°22'0 0.0
2017-Dec-13 23:00N 31°31' E 121°22'0 0.1
2017-Dec-13 22:29N 31°31' E 121°22'0 0.0
2017-Dec-13 22:00N 31°31' E 121°22'0 0.0
2017-Dec-13 21:27N 31°31' E 121°22'0 0.0
2017-Dec-13 20:53N 31°31' E 121°22'0 0.0
2017-Dec-13 20:29N 31°31' E 121°22'22114.2
2017-Dec-13 20:17N 31°46' E 121°04'2272.8
2017-Dec-13 19:59N 31°31' E 121°22'20379.1
2017-Dec-13 19:56N 31°45' E 121°06'2 3.9
2017-Dec-13 19:30N 31°44' E 121°07'19394.1
2017-Dec-13 19:27N 31°31' E 121°22'1736.4
2017-Dec-13 19:00N 31°42' E 121°09'17223.6
2017-Dec-13 18:55N 31°31' E 121°22'1535.6
2017-Dec-13 18:30N 31°41' E 121°10'158819.4
2017-Dec-13 18:30N 31°31' E 121°22'0 0.0
2017-Dec-13 17:58N 31°31' E 121°22'15205.4
2017-Dec-13 17:54N 31°41' E 121°10'1534.6
2017-Dec-13 17:29N 31°31' E 121°22'1597.2
2017-Dec-13 17:20N 31°41' E 121°10'1544.2
2017-Dec-13 17:00N 31°31' E 121°22'155239.1
2017-Dec-13 17:00N 31°41' E 121°10'1525.8
2017-Dec-13 16:26N 31°31' E 121°22'15401.2
2017-Dec-13 16:24N 31°41' E 121°10'1537.4
2017-Dec-13 16:00N 31°31' E 121°22'15131.5
2017-Dec-13 15:54N 31°41' E 121°10'1535.0
2017-Dec-13 15:29N 31°31' E 121°22'15397.1
2017-Dec-13 15:26N 31°41' E 121°10'1533.8
2017-Dec-13 15:01N 31°31' E 121°22'15738.1
2017-Dec-13 14:59N 31°41' E 121°10'1528.7
2017-Dec-13 14:29N 31°31' E 121°22'1462.8
2017-Dec-13 14:16N 31°41' E 121°11'1442.3
2017-Dec-13 13:56N 31°31' E 121°22'14202.7
2017-Dec-13 13:52N 31°41' E 121°11'1437.4
2017-Dec-13 13:29N 31°31' E 121°22'1478.6
2017-Dec-13 13:19N 31°41' E 121°11'1443.0
2017-Dec-13 12:59N 31°31' E 121°22'14539.9
2017-Dec-13 12:58N 31°41' E 121°11'1426.3
2017-Dec-13 12:26N 31°31' E 121°22'14196.0
2017-Dec-13 12:22N 31°41' E 121°11'1438.0
2017-Dec-13 12:00N 31°31' E 121°22'14425.0
2017-Dec-13 11:58N 31°41' E 121°11'1428.6
2017-Dec-13 11:28N 31°31' E 121°22'14123.5
2017-Dec-13 11:21N 31°41' E 121°11'1435.6
2017-Dec-13 10:58N 31°31' E 121°22'14254.5
2017-Dec-13 10:55N 31°41' E 121°11'1432.8
2017-Dec-13 10:29N 31°31' E 121°22'0 0.0
2017-Dec-13 10:00N 31°31' E 121°22'14142.8
2017-Dec-13 09:54N 31°41' E 121°11'1432.1
2017-Dec-13 09:28N 31°31' E 121°22'14211.9
2017-Dec-13 09:24N 31°41' E 121°11'1331.5
2017-Dec-13 09:00N 31°31' E 121°21'1354.7
2017-Dec-13 08:45N 31°41' E 121°11'1138.9
2017-Dec-13 08:29N 31°33' E 121°20'11449.2
2017-Dec-13 08:27N 31°41' E 121°11'815.0
2017-Dec-13 07:55N 31°35' E 121°18'81624.9
2017-Dec-13 07:54N 31°41' E 121°11'0 0.0
2017-Dec-13 07:30N 31°41' E 121°11'6342.1
2017-Dec-13 07:29N 31°37' E 121°16'612.6
2017-Dec-13 07:00N 31°41' E 121°11'4131.8
2017-Dec-13 06:58N 31°38' E 121°14'4 7.6
2017-Dec-13 06:30N 31°41' E 121°11'1 3.0
2017-Dec-13 06:18N 31°40' E 121°11'1 1.7
2017-Dec-13 05:57N 31°41' E 121°11'2159.1
2017-Dec-13 05:56N 31°41' E 121°10'2 3.4
2017-Dec-13 05:30N 31°41' E 121°11'0 0.0
2017-Dec-13 05:00N 31°41' E 121°11'0 0.1
2017-Dec-13 04:30N 31°41' E 121°11'0 0.0
2017-Dec-13 03:57N 31°41' E 121°11'0 0.0
2017-Dec-13 03:27N 31°41' E 121°11'0 0.0
2017-Dec-13 02:54N 31°41' E 121°11'0 0.1
2017-Dec-13 02:21N 31°41' E 121°11'0 0.0
2017-Dec-13 01:57N 31°41' E 121°11'0 0.0
2017-Dec-13 01:30N 31°41' E 121°11'0 0.0
2017-Dec-13 00:54N 31°41' E 121°11'0 0.0
2017-Dec-13 00:30N 31°41' E 121°11'0 0.0
2017-Dec-12 23:54N 31°41' E 121°11'0 0.0
2017-Dec-12 23:30N 31°41' E 121°11'0 0.0
2017-Dec-12 22:59N 31°41' E 121°11'0 0.1
2017-Dec-12 22:26N 31°41' E 121°11'0 0.0
2017-Dec-12 21:56N 31°41' E 121°11'0 0.0
2017-Dec-12 21:26N 31°41' E 121°11'0 0.0
2017-Dec-12 20:56N 31°41' E 121°11'0 0.0
2017-Dec-12 20:29N 31°41' E 121°11'0 0.0
2017-Dec-12 19:59N 31°41' E 121°11'0 0.0
2017-Dec-12 19:29N 31°41' E 121°11'0 0.0
2017-Dec-12 18:56N 31°41' E 121°11'0 0.0
2017-Dec-12 18:26N 31°41' E 121°11'0 0.0
2017-Dec-12 17:56N 31°41' E 121°11'0 0.1
2017-Dec-12 17:29N 31°41' E 121°11'0 0.0
2017-Dec-12 16:53N 31°41' E 121°11'0 0.0
2017-Dec-12 16:29N 31°41' E 121°11'0 0.0
2017-Dec-12 15:50N 31°41' E 121°11'0 0.0
2017-Dec-12 15:29N 31°41' E 121°11'0 0.0
2017-Dec-12 14:53N 31°41' E 121°11'0 0.0
2017-Dec-12 14:29N 31°41' E 121°11'0 0.0
2017-Dec-12 13:56N 31°41' E 121°11'0 0.0
2017-Dec-12 13:29N 31°41' E 121°11'0 0.0
2017-Dec-12 12:56N 31°41' E 121°11'0 0.0
2017-Dec-12 12:26N 31°41' E 121°11'0 0.0
2017-Dec-12 11:52N 31°41' E 121°11'0 0.0
2017-Dec-12 11:28N 31°41' E 121°11'0 0.0
2017-Dec-12 10:55N 31°41' E 121°11'0 0.0
2017-Dec-12 10:28N 31°41' E 121°11'0 0.0
2017-Dec-12 09:43N 31°41' E 121°11'0 0.1
2017-Dec-12 09:19N 31°41' E 121°11'0 0.2
2017-Dec-12 09:00N 31°41' E 121°11'0 0.7
2017-Dec-12 08:29N 31°41' E 121°12'0 0.0
2017-Dec-12 07:56N 31°41' E 121°12'0 0.0
2017-Dec-12 07:28N 31°41' E 121°12'0 0.0
2017-Dec-12 06:59N 31°41' E 121°12'0 0.0
2017-Dec-12 06:29N 31°41' E 121°12'0 0.0
2017-Dec-12 05:58N 31°41' E 121°12'0 0.0
2017-Dec-12 05:27N 31°41' E 121°12'0 0.1
2017-Dec-12 04:52N 31°41' E 121°12'0 0.0
2017-Dec-12 04:15N 31°41' E 121°12'0 0.0
2017-Dec-12 03:58N 31°41' E 121°12'0 0.0
2017-Dec-12 03:28N 31°41' E 121°12'0 0.0
2017-Dec-12 02:46N 31°41' E 121°12'0 0.0
2017-Dec-12 02:22N 31°41' E 121°12'0 0.0
2017-Dec-12 01:58N 31°41' E 121°12'0 0.0
2017-Dec-12 01:28N 31°41' E 121°12'3 6.1
2017-Dec-12 00:58N 31°39' E 121°14'4 7.3
2017-Dec-12 00:23N 31°36' E 121°18'3 6.8
2017-Dec-11 23:57N 31°33' E 121°20'3 6.8
2017-Dec-11 23:30N 31°32' E 121°23'4 7.0
2017-Dec-11 23:00N 31°29' E 121°26'3 6.7
2017-Dec-11 22:30N 31°27' E 121°29'4 6.8
2017-Dec-11 21:56N 31°25' E 121°32'13 0.3
2017-Dec-09 22:50N 31°17' E 121°45'0 0.0
2017-Dec-09 22:29N 31°17' E 121°45'0 0.0
2017-Dec-09 21:56N 31°17' E 121°45'0 0.0
2017-Dec-09 20:29N 31°17' E 121°45'0 0.0
2017-Dec-09 19:47N 31°17' E 121°45'0 0.1
2017-Dec-09 19:20N 31°17' E 121°45'78 7.5
2017-Dec-09 08:55N 31°58' E 120°27'0 0.3
2017-Dec-09 08:30N 31°58' E 120°27'0 0.2
2017-Dec-09 07:55N 31°58' E 120°27'  
Track history (hours):
 
Tides and Currents Weather Stations Pressure Air Temp Water Temp Dewpoint Dewpoint Depression Visibility Wind Speed Wind Dir Waves Ship Positions

Wake-n-waves

Last reported at 2017-Dec-17 02:22 UTC. Time now 2017-Dec-17 02:36 UTC.
Position N 31°38' E 121°14'.

Length 17 m.

Type: Pleasure craft. MMSI: 338025702.

Date/timePositionNaut miles runAvg speedWind from/ knotsBaromVisibWave heightAir tempDewpointWater temp
2017-Dec-17 02:22N 31°38' E 121°14'0 0.0
2017-Dec-17 01:10N 31°38' E 121°14'0 0.0
2017-Dec-17 00:49N 31°38' E 121°14'1 1.9
2017-Dec-17 00:29N 31°39' E 121°14'  
2017-Dec-14 12:27N 31°30' E 121°22'0 0.0
2017-Dec-14 11:51N 31°30' E 121°22'0 0.0
2017-Dec-14 11:30N 31°30' E 121°22'0 0.0
2017-Dec-14 10:49N 31°30' E 121°22'0 0.0
2017-Dec-14 10:27N 31°30' E 121°22'0 0.0
2017-Dec-14 10:00N 31°30' E 121°22'0 0.0
2017-Dec-14 09:30N 31°30' E 121°22'0 0.0
2017-Dec-14 08:58N 31°30' E 121°22'0 0.0
2017-Dec-14 08:30N 31°30' E 121°22'0 0.0
2017-Dec-14 07:24N 31°30' E 121°22'0 0.0
2017-Dec-14 06:59N 31°30' E 121°22'0 0.0
2017-Dec-14 06:28N 31°30' E 121°22'0 0.2
2017-Dec-14 05:57N 31°30' E 121°22'0 0.0
2017-Dec-14 05:29N 31°30' E 121°22'0 0.0
2017-Dec-14 05:00N 31°30' E 121°22'0 0.0
2017-Dec-14 04:30N 31°30' E 121°22'0 0.0
2017-Dec-14 03:53N 31°30' E 121°22'0 0.0
2017-Dec-14 03:30N 31°30' E 121°22'0 0.0
2017-Dec-14 02:59N 31°30' E 121°22'1 1.7
2017-Dec-14 02:29N 31°31' E 121°22'0 0.0
2017-Dec-14 01:59N 31°31' E 121°22'0 0.0
2017-Dec-14 01:29N 31°31' E 121°22'0 0.0
2017-Dec-14 01:00N 31°31' E 121°22'0 0.0
2017-Dec-14 00:28N 31°31' E 121°22'0 0.0
2017-Dec-14 00:00N 31°31' E 121°22'0 0.0
2017-Dec-13 23:30N 31°31' E 121°22'0 0.0
2017-Dec-13 23:00N 31°31' E 121°22'0 0.1
2017-Dec-13 22:29N 31°31' E 121°22'0 0.0
2017-Dec-13 22:00N 31°31' E 121°22'0 0.0
2017-Dec-13 21:27N 31°31' E 121°22'0 0.0
2017-Dec-13 20:53N 31°31' E 121°22'0 0.0
2017-Dec-13 20:29N 31°31' E 121°22'22114.2
2017-Dec-13 20:17N 31°46' E 121°04'2272.8
2017-Dec-13 19:59N 31°31' E 121°22'20379.1
2017-Dec-13 19:56N 31°45' E 121°06'2 3.9
2017-Dec-13 19:30N 31°44' E 121°07'19394.1
2017-Dec-13 19:27N 31°31' E 121°22'1736.4
2017-Dec-13 19:00N 31°42' E 121°09'17223.6
2017-Dec-13 18:55N 31°31' E 121°22'1535.6
2017-Dec-13 18:30N 31°41' E 121°10'158819.4
2017-Dec-13 18:30N 31°31' E 121°22'0 0.0
2017-Dec-13 17:58N 31°31' E 121°22'15205.4
2017-Dec-13 17:54N 31°41' E 121°10'1534.6
2017-Dec-13 17:29N 31°31' E 121°22'1597.2
2017-Dec-13 17:20N 31°41' E 121°10'1544.2
2017-Dec-13 17:00N 31°31' E 121°22'155239.1
2017-Dec-13 17:00N 31°41' E 121°10'1525.8
2017-Dec-13 16:26N 31°31' E 121°22'15401.2
2017-Dec-13 16:24N 31°41' E 121°10'1537.4
2017-Dec-13 16:00N 31°31' E 121°22'15131.5
2017-Dec-13 15:54N 31°41' E 121°10'1535.0
2017-Dec-13 15:29N 31°31' E 121°22'15397.1
2017-Dec-13 15:26N 31°41' E 121°10'1533.8
2017-Dec-13 15:01N 31°31' E 121°22'15738.1
2017-Dec-13 14:59N 31°41' E 121°10'1528.7
2017-Dec-13 14:29N 31°31' E 121°22'1462.8
2017-Dec-13 14:16N 31°41' E 121°11'1442.3
2017-Dec-13 13:56N 31°31' E 121°22'14202.7
2017-Dec-13 13:52N 31°41' E 121°11'1437.4
2017-Dec-13 13:29N 31°31' E 121°22'1478.6
2017-Dec-13 13:19N 31°41' E 121°11'1443.0
2017-Dec-13 12:59N 31°31' E 121°22'14539.9
2017-Dec-13 12:58N 31°41' E 121°11'1426.3
2017-Dec-13 12:26N 31°31' E 121°22'14196.0
2017-Dec-13 12:22N 31°41' E 121°11'1438.0
2017-Dec-13 12:00N 31°31' E 121°22'14425.0
2017-Dec-13 11:58N 31°41' E 121°11'1428.6
2017-Dec-13 11:28N 31°31' E 121°22'14123.5
2017-Dec-13 11:21N 31°41' E 121°11'1435.6
2017-Dec-13 10:58N 31°31' E 121°22'14254.5
2017-Dec-13 10:55N 31°41' E 121°11'1432.8
2017-Dec-13 10:29N 31°31' E 121°22'0 0.0
2017-Dec-13 10:00N 31°31' E 121°22'14142.8
2017-Dec-13 09:54N 31°41' E 121°11'1432.1
2017-Dec-13 09:28N 31°31' E 121°22'14211.9
2017-Dec-13 09:24N 31°41' E 121°11'1331.5
2017-Dec-13 09:00N 31°31' E 121°21'1354.7
2017-Dec-13 08:45N 31°41' E 121°11'1138.9
2017-Dec-13 08:29N 31°33' E 121°20'11449.2
2017-Dec-13 08:27N 31°41' E 121°11'815.0
2017-Dec-13 07:55N 31°35' E 121°18'81624.9
2017-Dec-13 07:54N 31°41' E 121°11'0 0.0
2017-Dec-13 07:30N 31°41' E 121°11'6342.1
2017-Dec-13 07:29N 31°37' E 121°16'612.6
2017-Dec-13 07:00N 31°41' E 121°11'4131.8
2017-Dec-13 06:58N 31°38' E 121°14'4 7.6
2017-Dec-13 06:30N 31°41' E 121°11'1 3.0
2017-Dec-13 06:18N 31°40' E 121°11'1 1.7
2017-Dec-13 05:57N 31°41' E 121°11'2159.1
2017-Dec-13 05:56N 31°41' E 121°10'2 3.4
2017-Dec-13 05:30N 31°41' E 121°11'0 0.0
2017-Dec-13 05:00N 31°41' E 121°11'0 0.1
2017-Dec-13 04:30N 31°41' E 121°11'0 0.0
2017-Dec-13 03:57N 31°41' E 121°11'0 0.0
2017-Dec-13 03:27N 31°41' E 121°11'0 0.0
2017-Dec-13 02:54N 31°41' E 121°11'0 0.1
2017-Dec-13 02:21N 31°41' E 121°11'0 0.0
2017-Dec-13 01:57N 31°41' E 121°11'0 0.0
2017-Dec-13 01:30N 31°41' E 121°11'0 0.0
2017-Dec-13 00:54N 31°41' E 121°11'0 0.0
2017-Dec-13 00:30N 31°41' E 121°11'0 0.0
2017-Dec-12 23:54N 31°41' E 121°11'0 0.0
2017-Dec-12 23:30N 31°41' E 121°11'0 0.0
2017-Dec-12 22:59N 31°41' E 121°11'0 0.1
2017-Dec-12 22:26N 31°41' E 121°11'0 0.0
2017-Dec-12 21:56N 31°41' E 121°11'0 0.0
2017-Dec-12 21:26N 31°41' E 121°11'0 0.0
2017-Dec-12 20:56N 31°41' E 121°11'0 0.0
2017-Dec-12 20:29N 31°41' E 121°11'0 0.0
2017-Dec-12 19:59N 31°41' E 121°11'0 0.0
2017-Dec-12 19:29N 31°41' E 121°11'0 0.0
2017-Dec-12 18:56N 31°41' E 121°11'0 0.0
2017-Dec-12 18:26N 31°41' E 121°11'0 0.0
2017-Dec-12 17:56N 31°41' E 121°11'0 0.1
2017-Dec-12 17:29N 31°41' E 121°11'0 0.0
2017-Dec-12 16:53N 31°41' E 121°11'0 0.0
2017-Dec-12 16:29N 31°41' E 121°11'0 0.0
2017-Dec-12 15:50N 31°41' E 121°11'0 0.0
2017-Dec-12 15:29N 31°41' E 121°11'0 0.0
2017-Dec-12 14:53N 31°41' E 121°11'0 0.0
2017-Dec-12 14:29N 31°41' E 121°11'0 0.0
2017-Dec-12 13:56N 31°41' E 121°11'0 0.0
2017-Dec-12 13:29N 31°41' E 121°11'0 0.0
2017-Dec-12 12:56N 31°41' E 121°11'0 0.0
2017-Dec-12 12:26N 31°41' E 121°11'0 0.0
2017-Dec-12 11:52N 31°41' E 121°11'0 0.0
2017-Dec-12 11:28N 31°41' E 121°11'0 0.0
2017-Dec-12 10:55N 31°41' E 121°11'0 0.0
2017-Dec-12 10:28N 31°41' E 121°11'0 0.0
2017-Dec-12 09:43N 31°41' E 121°11'0 0.1
2017-Dec-12 09:19N 31°41' E 121°11'0 0.2
2017-Dec-12 09:00N 31°41' E 121°11'0 0.7
2017-Dec-12 08:29N 31°41' E 121°12'0 0.0
2017-Dec-12 07:56N 31°41' E 121°12'0 0.0
2017-Dec-12 07:28N 31°41' E 121°12'0 0.0
2017-Dec-12 06:59N 31°41' E 121°12'0 0.0
2017-Dec-12 06:29N 31°41' E 121°12'0 0.0
2017-Dec-12 05:58N 31°41' E 121°12'0 0.0
2017-Dec-12 05:27N 31°41' E 121°12'0 0.1
2017-Dec-12 04:52N 31°41' E 121°12'0 0.0
2017-Dec-12 04:15N 31°41' E 121°12'0 0.0
2017-Dec-12 03:58N 31°41' E 121°12'0 0.0
2017-Dec-12 03:28N 31°41' E 121°12'0 0.0
2017-Dec-12 02:46N 31°41' E 121°12'0 0.0
2017-Dec-12 02:22N 31°41' E 121°12'0 0.0
2017-Dec-12 01:58N 31°41' E 121°12'0 0.0
2017-Dec-12 01:28N 31°41' E 121°12'3 6.1
2017-Dec-12 00:58N 31°39' E 121°14'4 7.3
2017-Dec-12 00:23N 31°36' E 121°18'3 6.8
2017-Dec-11 23:57N 31°33' E 121°20'3 6.8
2017-Dec-11 23:30N 31°32' E 121°23'4 7.0
2017-Dec-11 23:00N 31°29' E 121°26'3 6.7
2017-Dec-11 22:30N 31°27' E 121°29'4 6.8
2017-Dec-11 21:56N 31°25' E 121°32'13 0.3
2017-Dec-09 22:50N 31°17' E 121°45'0 0.0
2017-Dec-09 22:29N 31°17' E 121°45'0 0.0
2017-Dec-09 21:56N 31°17' E 121°45'0 0.0
2017-Dec-09 20:29N 31°17' E 121°45'0 0.0
2017-Dec-09 19:47N 31°17' E 121°45'0 0.1
2017-Dec-09 19:20N 31°17' E 121°45'78 7.5
2017-Dec-09 08:55N 31°58' E 120°27'0 0.3
2017-Dec-09 08:30N 31°58' E 120°27'0 0.2
2017-Dec-09 07:55N 31°58' E 120°27'  

Dump ship's entire track history